sensor_id;sensor_type;location;lat;lon;timestamp;pressure;altitude;pressure_sealevel;temperature
42197;BMP280;27866;48.146;17.098;2023-11-22T00:00:35;99517.53;;;9.87
42197;BMP280;27866;48.146;17.098;2023-11-22T00:04:46;99522.34;;;9.92
42197;BMP280;27866;48.146;17.098;2023-11-22T00:08:57;99525.16;;;10.01
42197;BMP280;27866;48.146;17.098;2023-11-22T00:13:08;99522.03;;;10.08
42197;BMP280;27866;48.146;17.098;2023-11-22T00:17:19;99527.88;;;10.22
42197;BMP280;27866;48.146;17.098;2023-11-22T00:21:31;99532.84;;;10.25
42197;BMP280;27866;48.146;17.098;2023-11-22T00:25:42;99526.41;;;10.30
42197;BMP280;27866;48.146;17.098;2023-11-22T00:29:53;99519.44;;;10.43
42197;BMP280;27866;48.146;17.098;2023-11-22T00:34:04;99532.09;;;10.58
42197;BMP280;27866;48.146;17.098;2023-11-22T00:38:15;99521.56;;;10.71
42197;BMP280;27866;48.146;17.098;2023-11-22T00:42:27;99530.22;;;10.83
42197;BMP280;27866;48.146;17.098;2023-11-22T00:46:38;99531.56;;;10.88
42197;BMP280;27866;48.146;17.098;2023-11-22T00:50:49;99529.69;;;10.90
42197;BMP280;27866;48.146;17.098;2023-11-22T01:08:52;99554.19;;;10.97
42197;BMP280;27866;48.146;17.098;2023-11-22T01:13:03;99548.19;;;10.96
42197;BMP280;27866;48.146;17.098;2023-11-22T01:17:15;99542.63;;;10.90
42197;BMP280;27866;48.146;17.098;2023-11-22T01:21:26;99539.56;;;10.96
42197;BMP280;27866;48.146;17.098;2023-11-22T01:25:37;99554.91;;;10.99
42197;BMP280;27866;48.146;17.098;2023-11-22T01:29:48;99557.22;;;10.91
42197;BMP280;27866;48.146;17.098;2023-11-22T01:33:59;99563.28;;;10.79
42197;BMP280;27866;48.146;17.098;2023-11-22T01:38:12;99560.84;;;10.66
42197;BMP280;27866;48.146;17.098;2023-11-22T01:42:24;99555.31;;;10.59
42197;BMP280;27866;48.146;17.098;2023-11-22T01:46:36;99565.03;;;10.56
42197;BMP280;27866;48.146;17.098;2023-11-22T01:50:48;99559.25;;;10.53
42197;BMP280;27866;48.146;17.098;2023-11-22T01:55:01;99561.91;;;10.41
42197;BMP280;27866;48.146;17.098;2023-11-22T01:59:15;99557.75;;;10.38
42197;BMP280;27866;48.146;17.098;2023-11-22T02:03:27;99560.06;;;10.30
42197;BMP280;27866;48.146;17.098;2023-11-22T02:07:39;99568.44;;;10.34
42197;BMP280;27866;48.146;17.098;2023-11-22T02:11:50;99566.66;;;10.46
42197;BMP280;27866;48.146;17.098;2023-11-22T02:16:02;99574.34;;;10.58
42197;BMP280;27866;48.146;17.098;2023-11-22T02:20:14;99577.03;;;10.69
42197;BMP280;27866;48.146;17.098;2023-11-22T02:24:26;99597.69;;;10.81
42197;BMP280;27866;48.146;17.098;2023-11-22T02:28:37;99598.50;;;10.82
42197;BMP280;27866;48.146;17.098;2023-11-22T02:32:48;99596.25;;;10.77
42197;BMP280;27866;48.146;17.098;2023-11-22T02:37:00;99599.41;;;10.58
42197;BMP280;27866;48.146;17.098;2023-11-22T02:41:12;99606.81;;;10.40
42197;BMP280;27866;48.146;17.098;2023-11-22T02:45:28;99604.47;;;10.37
42197;BMP280;27866;48.146;17.098;2023-11-22T02:49:39;99606.09;;;10.38
42197;BMP280;27866;48.146;17.098;2023-11-22T02:53:51;99596.78;;;10.35
42197;BMP280;27866;48.146;17.098;2023-11-22T02:58:02;99594.00;;;10.26
42197;BMP280;27866;48.146;17.098;2023-11-22T03:02:14;99607.91;;;10.13
42197;BMP280;27866;48.146;17.098;2023-11-22T03:06:27;99612.38;;;9.99
42197;BMP280;27866;48.146;17.098;2023-11-22T03:10:39;99617.63;;;9.98
42197;BMP280;27866;48.146;17.098;2023-11-22T03:14:50;99622.69;;;10.11
42197;BMP280;27866;48.146;17.098;2023-11-22T03:19:02;99633.38;;;10.07
42197;BMP280;27866;48.146;17.098;2023-11-22T03:23:13;99634.72;;;10.00
42197;BMP280;27866;48.146;17.098;2023-11-22T03:27:27;99640.09;;;9.85
42197;BMP280;27866;48.146;17.098;2023-11-22T03:31:39;99653.31;;;9.81
42197;BMP280;27866;48.146;17.098;2023-11-22T03:35:51;99666.75;;;9.73
42197;BMP280;27866;48.146;17.098;2023-11-22T03:40:02;99687.88;;;9.54
42197;BMP280;27866;48.146;17.098;2023-11-22T03:44:15;99689.00;;;9.38
42197;BMP280;27866;48.146;17.098;2023-11-22T03:48:26;99697.78;;;9.10
42197;BMP280;27866;48.146;17.098;2023-11-22T03:52:37;99712.75;;;8.92
42197;BMP280;27866;48.146;17.098;2023-11-22T03:56:48;99722.91;;;8.81
42197;BMP280;27866;48.146;17.098;2023-11-22T04:00:59;99737.69;;;8.79
42197;BMP280;27866;48.146;17.098;2023-11-22T04:05:13;99740.72;;;8.72
42197;BMP280;27866;48.146;17.098;2023-11-22T04:09:24;99749.84;;;8.77
42197;BMP280;27866;48.146;17.098;2023-11-22T04:13:37;99750.41;;;8.68
42197;BMP280;27866;48.146;17.098;2023-11-22T04:17:48;99771.16;;;8.54
42197;BMP280;27866;48.146;17.098;2023-11-22T04:21:59;99769.56;;;8.38
42197;BMP280;27866;48.146;17.098;2023-11-22T04:26:11;99774.06;;;8.21
42197;BMP280;27866;48.146;17.098;2023-11-22T04:30:22;99800.13;;;8.16
42197;BMP280;27866;48.146;17.098;2023-11-22T04:34:33;99823.63;;;8.12
42197;BMP280;27866;48.146;17.098;2023-11-22T04:38:46;99827.50;;;8.19
42197;BMP280;27866;48.146;17.098;2023-11-22T04:42:57;99836.06;;;8.19
42197;BMP280;27866;48.146;17.098;2023-11-22T04:47:08;99846.47;;;8.18
42197;BMP280;27866;48.146;17.098;2023-11-22T04:51:19;99840.69;;;8.28
42197;BMP280;27866;48.146;17.098;2023-11-22T04:55:30;99846.59;;;8.30
42197;BMP280;27866;48.146;17.098;2023-11-22T04:59:41;99840.88;;;8.25
42197;BMP280;27866;48.146;17.098;2023-11-22T05:03:53;99855.81;;;8.34
42197;BMP280;27866;48.146;17.098;2023-11-22T05:08:04;99870.56;;;8.45
42197;BMP280;27866;48.146;17.098;2023-11-22T05:12:15;99880.94;;;8.30
42197;BMP280;27866;48.146;17.098;2023-11-22T05:16:26;99883.44;;;8.32
42197;BMP280;27866;48.146;17.098;2023-11-22T05:20:38;99887.09;;;8.28
42197;BMP280;27866;48.146;17.098;2023-11-22T05:24:50;99886.47;;;8.25
42197;BMP280;27866;48.146;17.098;2023-11-22T05:29:01;99893.75;;;8.32
42197;BMP280;27866;48.146;17.098;2023-11-22T05:33:12;99894.94;;;8.26
42197;BMP280;27866;48.146;17.098;2023-11-22T05:37:23;99902.44;;;8.31
42197;BMP280;27866;48.146;17.098;2023-11-22T05:41:34;99890.09;;;8.36
42197;BMP280;27866;48.146;17.098;2023-11-22T05:45:46;99886.72;;;8.20
42197;BMP280;27866;48.146;17.098;2023-11-22T05:50:00;99906.19;;;8.10
42197;BMP280;27866;48.146;17.098;2023-11-22T05:54:11;99920.56;;;8.01
42197;BMP280;27866;48.146;17.098;2023-11-22T05:58:23;99928.75;;;7.92
42197;BMP280;27866;48.146;17.098;2023-11-22T06:02:34;99938.72;;;7.83
42197;BMP280;27866;48.146;17.098;2023-11-22T06:06:47;99938.56;;;7.71
42197;BMP280;27866;48.146;17.098;2023-11-22T06:10:58;99943.03;;;7.82
42197;BMP280;27866;48.146;17.098;2023-11-22T06:15:10;99966.00;;;7.87
42197;BMP280;27866;48.146;17.098;2023-11-22T06:19:21;99958.94;;;7.90
42197;BMP280;27866;48.146;17.098;2023-11-22T06:23:33;99977.19;;;8.02
42197;BMP280;27866;48.146;17.098;2023-11-22T06:27:44;99978.00;;;8.18
42197;BMP280;27866;48.146;17.098;2023-11-22T06:31:55;99989.97;;;8.19
42197;BMP280;27866;48.146;17.098;2023-11-22T06:36:07;99989.00;;;8.06
42197;BMP280;27866;48.146;17.098;2023-11-22T06:40:20;99985.16;;;8.13
42197;BMP280;27866;48.146;17.098;2023-11-22T06:44:31;99992.09;;;7.81
42197;BMP280;27866;48.146;17.098;2023-11-22T06:48:43;99995.41;;;7.53
42197;BMP280;27866;48.146;17.098;2023-11-22T06:52:55;100018.16;;;7.45
42197;BMP280;27866;48.146;17.098;2023-11-22T06:57:06;100033.06;;;7.55
42197;BMP280;27866;48.146;17.098;2023-11-22T07:01:17;100036.78;;;7.81
42197;BMP280;27866;48.146;17.098;2023-11-22T07:05:28;100050.09;;;7.89
42197;BMP280;27866;48.146;17.098;2023-11-22T07:09:44;100046.50;;;7.92
42197;BMP280;27866;48.146;17.098;2023-11-22T07:13:57;100059.09;;;7.97
42197;BMP280;27866;48.146;17.098;2023-11-22T07:18:11;100064.19;;;7.99
42197;BMP280;27866;48.146;17.098;2023-11-22T07:22:24;100079.19;;;7.91
42197;BMP280;27866;48.146;17.098;2023-11-22T07:26:35;100084.97;;;7.96
42197;BMP280;27866;48.146;17.098;2023-11-22T07:30:46;100097.56;;;8.17
42197;BMP280;27866;48.146;17.098;2023-11-22T07:34:59;100099.47;;;8.28
42197;BMP280;27866;48.146;17.098;2023-11-22T07:39:14;100129.78;;;8.40
42197;BMP280;27866;48.146;17.098;2023-11-22T07:43:25;100129.19;;;8.35
42197;BMP280;27866;48.146;17.098;2023-11-22T07:47:37;100115.28;;;8.38
42197;BMP280;27866;48.146;17.098;2023-11-22T07:51:50;100133.09;;;8.27
42197;BMP280;27866;48.146;17.098;2023-11-22T07:56:05;100128.41;;;8.18
42197;BMP280;27866;48.146;17.098;2023-11-22T08:00:17;100138.72;;;8.18
42197;BMP280;27866;48.146;17.098;2023-11-22T08:04:30;100125.91;;;8.17
42197;BMP280;27866;48.146;17.098;2023-11-22T08:08:45;100149.38;;;8.12
42197;BMP280;27866;48.146;17.098;2023-11-22T08:12:56;100159.97;;;8.23
42197;BMP280;27866;48.146;17.098;2023-11-22T08:17:08;100158.25;;;8.39
42197;BMP280;27866;48.146;17.098;2023-11-22T08:21:19;100166.53;;;10.96
42197;BMP280;27866;48.146;17.098;2023-11-22T08:25:30;100166.47;;;13.27
42197;BMP280;27866;48.146;17.098;2023-11-22T08:29:48;100162.22;;;12.68
42197;BMP280;27866;48.146;17.098;2023-11-22T08:33:59;100148.78;;;14.51
42197;BMP280;27866;48.146;17.098;2023-11-22T08:38:10;100167.75;;;13.77
42197;BMP280;27866;48.146;17.098;2023-11-22T08:42:21;100169.88;;;13.50
42197;BMP280;27866;48.146;17.098;2023-11-22T08:46:34;100188.00;;;12.59
42197;BMP280;27866;48.146;17.098;2023-11-22T08:50:45;100192.91;;;10.88
42197;BMP280;27866;48.146;17.098;2023-11-22T08:54:58;100194.59;;;10.23
42197;BMP280;27866;48.146;17.098;2023-11-22T08:59:11;100193.00;;;9.50
42197;BMP280;27866;48.146;17.098;2023-11-22T09:03:22;100199.56;;;8.98
42197;BMP280;27866;48.146;17.098;2023-11-22T09:07:37;100188.91;;;8.74
42197;BMP280;27866;48.146;17.098;2023-11-22T09:11:49;100202.19;;;8.52
42197;BMP280;27866;48.146;17.098;2023-11-22T09:16:00;100207.50;;;8.34
42197;BMP280;27866;48.146;17.098;2023-11-22T09:20:13;100208.03;;;8.40
42197;BMP280;27866;48.146;17.098;2023-11-22T09:24:24;100222.84;;;8.52
42197;BMP280;27866;48.146;17.098;2023-11-22T09:28:35;100234.22;;;8.48
42197;BMP280;27866;48.146;17.098;2023-11-22T09:32:47;100226.72;;;8.29
42197;BMP280;27866;48.146;17.098;2023-11-22T09:36:58;100239.38;;;8.48
42197;BMP280;27866;48.146;17.098;2023-11-22T09:41:10;100237.16;;;8.42
42197;BMP280;27866;48.146;17.098;2023-11-22T09:45:21;100234.81;;;8.38
42197;BMP280;27866;48.146;17.098;2023-11-22T09:49:34;100230.06;;;8.31
42197;BMP280;27866;48.146;17.098;2023-11-22T09:54:04;100233.31;;;8.34
42197;BMP280;27866;48.146;17.098;2023-11-22T09:58:18;100227.50;;;8.46
42197;BMP280;27866;48.146;17.098;2023-11-22T10:02:30;100233.13;;;8.37
42197;BMP280;27866;48.146;17.098;2023-11-22T10:06:42;100240.63;;;8.41
42197;BMP280;27866;48.146;17.098;2023-11-22T10:10:58;100236.63;;;8.36
42197;BMP280;27866;48.146;17.098;2023-11-22T10:15:15;100255.78;;;8.32
42197;BMP280;27866;48.146;17.098;2023-11-22T10:19:27;100259.56;;;8.25
42197;BMP280;27866;48.146;17.098;2023-11-22T10:23:40;100274.75;;;8.46
42197;BMP280;27866;48.146;17.098;2023-11-22T10:27:51;100277.19;;;8.96
42197;BMP280;27866;48.146;17.098;2023-11-22T10:32:03;100280.31;;;9.60
42197;BMP280;27866;48.146;17.098;2023-11-22T10:36:15;100284.34;;;9.94
42197;BMP280;27866;48.146;17.098;2023-11-22T10:40:29;100283.16;;;9.99
42197;BMP280;27866;48.146;17.098;2023-11-22T10:44:40;100283.94;;;10.15
42197;BMP280;27866;48.146;17.098;2023-11-22T10:48:52;100280.03;;;10.50
42197;BMP280;27866;48.146;17.098;2023-11-22T10:53:07;100290.56;;;10.74
42197;BMP280;27866;48.146;17.098;2023-11-22T10:57:25;100281.94;;;10.74
42197;BMP280;27866;48.146;17.098;2023-11-22T11:01:37;100303.94;;;10.40
42197;BMP280;27866;48.146;17.098;2023-11-22T11:05:58;100278.38;;;10.07
42197;BMP280;27866;48.146;17.098;2023-11-22T11:10:10;100287.41;;;9.72
42197;BMP280;27866;48.146;17.098;2023-11-22T11:14:22;100289.41;;;9.67
42197;BMP280;27866;48.146;17.098;2023-11-22T11:18:35;100307.50;;;9.82
42197;BMP280;27866;48.146;17.098;2023-11-22T11:22:48;100328.41;;;9.93
42197;BMP280;27866;48.146;17.098;2023-11-22T11:27:02;100319.75;;;9.79
42197;BMP280;27866;48.146;17.098;2023-11-22T11:31:15;100319.69;;;9.65
42197;BMP280;27866;48.146;17.098;2023-11-22T11:35:44;100319.69;;;9.65
42197;BMP280;27866;48.146;17.098;2023-11-22T11:39:58;100328.13;;;10.12
42197;BMP280;27866;48.146;17.098;2023-11-22T11:44:10;100330.56;;;10.28
42197;BMP280;27866;48.146;17.098;2023-11-22T11:48:22;100341.91;;;10.26
42197;BMP280;27866;48.146;17.098;2023-11-22T11:52:39;100363.41;;;10.13
42197;BMP280;27866;48.146;17.098;2023-11-22T11:56:51;100342.53;;;9.87
42197;BMP280;27866;48.146;17.098;2023-11-22T12:01:05;100365.53;;;10.07
42197;BMP280;27866;48.146;17.098;2023-11-22T12:05:21;100370.06;;;9.88
42197;BMP280;27866;48.146;17.098;2023-11-22T12:09:32;100396.41;;;9.65
42197;BMP280;27866;48.146;17.098;2023-11-22T12:13:46;100399.22;;;9.30
42197;BMP280;27866;48.146;17.098;2023-11-22T12:18:01;100425.53;;;9.07
42197;BMP280;27866;48.146;17.098;2023-11-22T12:22:12;100425.13;;;9.14
42197;BMP280;27866;48.146;17.098;2023-11-22T12:26:23;100421.75;;;9.28
42197;BMP280;27866;48.146;17.098;2023-11-22T12:30:37;100407.06;;;9.29
42197;BMP280;27866;48.146;17.098;2023-11-22T12:34:50;100425.06;;;9.30
42197;BMP280;27866;48.146;17.098;2023-11-22T12:39:10;100418.50;;;9.09
42197;BMP280;27866;48.146;17.098;2023-11-22T12:43:27;100436.28;;;9.14
42197;BMP280;27866;48.146;17.098;2023-11-22T12:47:39;100426.69;;;9.48
42197;BMP280;27866;48.146;17.098;2023-11-22T12:51:53;100431.78;;;9.64
42197;BMP280;27866;48.146;17.098;2023-11-22T12:56:06;100454.91;;;9.36
42197;BMP280;27866;48.146;17.098;2023-11-22T13:00:17;100468.44;;;9.26
42197;BMP280;27866;48.146;17.098;2023-11-22T13:04:29;100452.44;;;8.86
42197;BMP280;27866;48.146;17.098;2023-11-22T13:08:41;100444.56;;;8.73
42197;BMP280;27866;48.146;17.098;2023-11-22T13:12:53;100441.31;;;8.69
42197;BMP280;27866;48.146;17.098;2023-11-22T13:17:05;100457.41;;;8.74
42197;BMP280;27866;48.146;17.098;2023-11-22T13:21:17;100454.28;;;9.01
42197;BMP280;27866;48.146;17.098;2023-11-22T13:25:29;100452.53;;;9.16
42197;BMP280;27866;48.146;17.098;2023-11-22T13:29:40;100445.16;;;8.94
42197;BMP280;27866;48.146;17.098;2023-11-22T13:33:51;100436.84;;;9.04
42197;BMP280;27866;48.146;17.098;2023-11-22T13:38:02;100449.47;;;9.10
42197;BMP280;27866;48.146;17.098;2023-11-22T13:42:14;100439.41;;;8.73
42197;BMP280;27866;48.146;17.098;2023-11-22T13:46:25;100443.38;;;8.63
42197;BMP280;27866;48.146;17.098;2023-11-22T13:50:37;100432.44;;;8.42
42197;BMP280;27866;48.146;17.098;2023-11-22T13:54:48;100444.41;;;8.10
42197;BMP280;27866;48.146;17.098;2023-11-22T13:59:01;100458.75;;;7.97
42197;BMP280;27866;48.146;17.098;2023-11-22T14:03:13;100471.66;;;7.62
42197;BMP280;27866;48.146;17.098;2023-11-22T14:07:25;100458.94;;;7.59
42197;BMP280;27866;48.146;17.098;2023-11-22T14:11:38;100462.09;;;7.64
42197;BMP280;27866;48.146;17.098;2023-11-22T14:15:49;100469.00;;;7.81
42197;BMP280;27866;48.146;17.098;2023-11-22T14:20:00;100468.53;;;7.73
42197;BMP280;27866;48.146;17.098;2023-11-22T14:24:11;100478.69;;;7.58
42197;BMP280;27866;48.146;17.098;2023-11-22T14:28:23;100483.28;;;7.70
42197;BMP280;27866;48.146;17.098;2023-11-22T14:32:34;100486.91;;;7.66
42197;BMP280;27866;48.146;17.098;2023-11-22T14:36:47;100491.31;;;7.64
42197;BMP280;27866;48.146;17.098;2023-11-22T14:40:58;100506.28;;;7.56
42197;BMP280;27866;48.146;17.098;2023-11-22T14:45:09;100504.41;;;7.23
42197;BMP280;27866;48.146;17.098;2023-11-22T14:49:22;100510.63;;;6.99
42197;BMP280;27866;48.146;17.098;2023-11-22T14:53:33;100510.13;;;6.72
42197;BMP280;27866;48.146;17.098;2023-11-22T14:57:44;100517.88;;;6.71
42197;BMP280;27866;48.146;17.098;2023-11-22T15:01:56;100533.78;;;6.61
42197;BMP280;27866;48.146;17.098;2023-11-22T15:06:07;100535.59;;;6.59
42197;BMP280;27866;48.146;17.098;2023-11-22T15:10:21;100536.16;;;6.44
42197;BMP280;27866;48.146;17.098;2023-11-22T15:14:32;100528.84;;;6.36
42197;BMP280;27866;48.146;17.098;2023-11-22T15:18:44;100531.34;;;6.16
42197;BMP280;27866;48.146;17.098;2023-11-22T15:22:55;100535.13;;;6.08
42197;BMP280;27866;48.146;17.098;2023-11-22T15:27:07;100552.97;;;5.90
42197;BMP280;27866;48.146;17.098;2023-11-22T15:31:19;100567.34;;;5.73
42197;BMP280;27866;48.146;17.098;2023-11-22T15:35:30;100544.66;;;5.62
42197;BMP280;27866;48.146;17.098;2023-11-22T15:39:41;100556.19;;;5.50
42197;BMP280;27866;48.146;17.098;2023-11-22T15:43:53;100545.25;;;5.46
42197;BMP280;27866;48.146;17.098;2023-11-22T15:48:04;100574.44;;;5.43
42197;BMP280;27866;48.146;17.098;2023-11-22T15:52:15;100572.88;;;5.39
42197;BMP280;27866;48.146;17.098;2023-11-22T15:56:26;100587.38;;;5.40
42197;BMP280;27866;48.146;17.098;2023-11-22T16:00:38;100589.22;;;5.37
42197;BMP280;27866;48.146;17.098;2023-11-22T16:04:49;100592.69;;;5.36
42197;BMP280;27866;48.146;17.098;2023-11-22T16:09:02;100600.63;;;5.30
42197;BMP280;27866;48.146;17.098;2023-11-22T16:13:13;100605.63;;;5.33
42197;BMP280;27866;48.146;17.098;2023-11-22T16:17:25;100595.94;;;5.41
42197;BMP280;27866;48.146;17.098;2023-11-22T16:21:36;100611.03;;;5.49
42197;BMP280;27866;48.146;17.098;2023-11-22T16:25:48;100612.06;;;5.44
42197;BMP280;27866;48.146;17.098;2023-11-22T16:30:01;100621.53;;;5.44
42197;BMP280;27866;48.146;17.098;2023-11-22T16:34:14;100631.78;;;5.44
42197;BMP280;27866;48.146;17.098;2023-11-22T16:38:25;100637.34;;;5.32
42197;BMP280;27866;48.146;17.098;2023-11-22T16:42:37;100624.50;;;5.32
42197;BMP280;27866;48.146;17.098;2023-11-22T16:46:48;100643.75;;;5.20
42197;BMP280;27866;48.146;17.098;2023-11-22T16:51:00;100641.44;;;5.14
42197;BMP280;27866;48.146;17.098;2023-11-22T16:55:11;100638.28;;;5.06
42197;BMP280;27866;48.146;17.098;2023-11-22T16:59:24;100652.97;;;5.01
42197;BMP280;27866;48.146;17.098;2023-11-22T17:03:35;100647.94;;;4.98
42197;BMP280;27866;48.146;17.098;2023-11-22T17:07:47;100635.25;;;4.94
42197;BMP280;27866;48.146;17.098;2023-11-22T17:11:58;100630.78;;;5.00
42197;BMP280;27866;48.146;17.098;2023-11-22T17:16:09;100630.72;;;5.02
42197;BMP280;27866;48.146;17.098;2023-11-22T17:20:20;100621.19;;;5.05
42197;BMP280;27866;48.146;17.098;2023-11-22T17:24:32;100628.81;;;5.08
42197;BMP280;27866;48.146;17.098;2023-11-22T17:28:43;100626.13;;;5.11
42197;BMP280;27866;48.146;17.098;2023-11-22T17:32:54;100642.97;;;5.18
42197;BMP280;27866;48.146;17.098;2023-11-22T17:37:05;100649.41;;;5.30
42197;BMP280;27866;48.146;17.098;2023-11-22T17:41:16;100662.03;;;5.36
42197;BMP280;27866;48.146;17.098;2023-11-22T17:45:28;100656.56;;;5.45
42197;BMP280;27866;48.146;17.098;2023-11-22T17:49:39;100657.97;;;5.29
42197;BMP280;27866;48.146;17.098;2023-11-22T17:53:50;100673.16;;;5.11
42197;BMP280;27866;48.146;17.098;2023-11-22T17:58:02;100679.44;;;5.03
42197;BMP280;27866;48.146;17.098;2023-11-22T18:02:14;100702.13;;;4.90
42197;BMP280;27866;48.146;17.098;2023-11-22T18:06:26;100700.66;;;4.83
42197;BMP280;27866;48.146;17.098;2023-11-22T18:10:37;100708.47;;;4.78
42197;BMP280;27866;48.146;17.098;2023-11-22T18:14:48;100708.47;;;4.78
42197;BMP280;27866;48.146;17.098;2023-11-22T18:18:59;100721.41;;;4.76
42197;BMP280;27866;48.146;17.098;2023-11-22T18:23:12;100723.91;;;4.77
42197;BMP280;27866;48.146;17.098;2023-11-22T18:27:24;100717.81;;;4.81
42197;BMP280;27866;48.146;17.098;2023-11-22T18:31:35;100718.78;;;4.77
42197;BMP280;27866;48.146;17.098;2023-11-22T18:35:46;100707.84;;;4.72
42197;BMP280;27866;48.146;17.098;2023-11-22T18:39:57;100713.91;;;4.70
42197;BMP280;27866;48.146;17.098;2023-11-22T18:44:09;100721.66;;;4.68
42197;BMP280;27866;48.146;17.098;2023-11-22T18:48:22;100717.16;;;4.75
42197;BMP280;27866;48.146;17.098;2023-11-22T18:52:34;100721.34;;;4.77
42197;BMP280;27866;48.146;17.098;2023-11-22T18:56:46;100726.50;;;4.77
42197;BMP280;27866;48.146;17.098;2023-11-22T19:00:57;100732.50;;;4.76
42197;BMP280;27866;48.146;17.098;2023-11-22T19:05:08;100741.03;;;4.77
42197;BMP280;27866;48.146;17.098;2023-11-22T19:09:19;100733.09;;;4.84
42197;BMP280;27866;48.146;17.098;2023-11-22T19:13:31;100730.72;;;4.78
42197;BMP280;27866;48.146;17.098;2023-11-22T19:17:42;100737.59;;;4.77
42197;BMP280;27866;48.146;17.098;2023-11-22T19:21:53;100734.97;;;4.79
42197;BMP280;27866;48.146;17.098;2023-11-22T19:26:04;100731.63;;;4.77
42197;BMP280;27866;48.146;17.098;2023-11-22T19:30:15;100722.19;;;4.77
42197;BMP280;27866;48.146;17.098;2023-11-22T19:34:27;100734.88;;;4.82
42197;BMP280;27866;48.146;17.098;2023-11-22T19:38:38;100734.06;;;4.81
42197;BMP280;27866;48.146;17.098;2023-11-22T19:42:50;100728.88;;;4.83
42197;BMP280;27866;48.146;17.098;2023-11-22T19:47:02;100741.50;;;4.89
42197;BMP280;27866;48.146;17.098;2023-11-22T19:51:15;100742.25;;;4.92
42197;BMP280;27866;48.146;17.098;2023-11-22T19:55:26;100731.06;;;4.94
42197;BMP280;27866;48.146;17.098;2023-11-22T19:59:37;100727.59;;;4.95
42197;BMP280;27866;48.146;17.098;2023-11-22T20:03:48;100713.81;;;4.98
42197;BMP280;27866;48.146;17.098;2023-11-22T20:08:00;100725.75;;;5.00
42197;BMP280;27866;48.146;17.098;2023-11-22T20:12:11;100709.34;;;5.04
42197;BMP280;27866;48.146;17.098;2023-11-22T20:16:22;100708.44;;;5.05
42197;BMP280;27866;48.146;17.098;2023-11-22T20:20:33;100726.41;;;5.05
42197;BMP280;27866;48.146;17.098;2023-11-22T20:24:46;100723.72;;;5.09
42197;BMP280;27866;48.146;17.098;2023-11-22T20:28:57;100709.09;;;5.11
42197;BMP280;27866;48.146;17.098;2023-11-22T20:33:08;100708.19;;;5.12
42197;BMP280;27866;48.146;17.098;2023-11-22T20:37:19;100693.59;;;5.14
42197;BMP280;27866;48.146;17.098;2023-11-22T20:41:30;100693.44;;;5.19
42197;BMP280;27866;48.146;17.098;2023-11-22T20:45:42;100703.66;;;5.20
42197;BMP280;27866;48.146;17.098;2023-11-22T20:49:53;100713.38;;;5.11
42197;BMP280;27866;48.146;17.098;2023-11-22T20:54:04;100709.28;;;5.06
42197;BMP280;27866;48.146;17.098;2023-11-22T20:58:15;100714.13;;;5.14
42197;BMP280;27866;48.146;17.098;2023-11-22T21:02:26;100694.13;;;5.23
42197;BMP280;27866;48.146;17.098;2023-11-22T21:06:41;100697.41;;;5.28
42197;BMP280;27866;48.146;17.098;2023-11-22T21:10:52;100712.50;;;5.37
42197;BMP280;27866;48.146;17.098;2023-11-22T21:15:03;100694.31;;;5.43
42197;BMP280;27866;48.146;17.098;2023-11-22T21:19:15;100705.16;;;5.50
42197;BMP280;27866;48.146;17.098;2023-11-22T21:23:26;100716.88;;;5.59
42197;BMP280;27866;48.146;17.098;2023-11-22T21:27:37;100717.56;;;5.64
42197;BMP280;27866;48.146;17.098;2023-11-22T21:31:52;100713.16;;;5.67
42197;BMP280;27866;48.146;17.098;2023-11-22T21:36:10;100705.56;;;5.64
42197;BMP280;27866;48.146;17.098;2023-11-22T21:40:22;100703.88;;;5.63
42197;BMP280;27866;48.146;17.098;2023-11-22T21:44:34;100693.50;;;5.66
42197;BMP280;27866;48.146;17.098;2023-11-22T21:48:45;100704.53;;;5.69
42197;BMP280;27866;48.146;17.098;2023-11-22T21:52:57;100701.88;;;5.71
42197;BMP280;27866;48.146;17.098;2023-11-22T21:57:08;100703.47;;;5.75
42197;BMP280;27866;48.146;17.098;2023-11-22T22:01:19;100705.81;;;5.80
42197;BMP280;27866;48.146;17.098;2023-11-22T22:05:31;100692.91;;;5.82
42197;BMP280;27866;48.146;17.098;2023-11-22T22:09:45;100694.59;;;5.83
42197;BMP280;27866;48.146;17.098;2023-11-22T22:13:56;100701.38;;;5.85
42197;BMP280;27866;48.146;17.098;2023-11-22T22:18:07;100693.47;;;5.91
42197;BMP280;27866;48.146;17.098;2023-11-22T22:22:19;100691.66;;;5.93
42197;BMP280;27866;48.146;17.098;2023-11-22T22:26:31;100679.06;;;5.86
42197;BMP280;27866;48.146;17.098;2023-11-22T22:30:42;100697.81;;;5.89
42197;BMP280;27866;48.146;17.098;2023-11-22T22:34:53;100693.13;;;6.00
42197;BMP280;27866;48.146;17.098;2023-11-22T22:39:05;100679.03;;;6.09
42197;BMP280;27866;48.146;17.098;2023-11-22T22:43:16;100687.41;;;6.14
42197;BMP280;27866;48.146;17.098;2023-11-22T22:47:27;100677.53;;;6.04
42197;BMP280;27866;48.146;17.098;2023-11-22T22:51:39;100678.56;;;5.99
42197;BMP280;27866;48.146;17.098;2023-11-22T22:55:50;100674.91;;;5.83
42197;BMP280;27866;48.146;17.098;2023-11-22T23:00:02;100680.13;;;5.80
42197;BMP280;27866;48.146;17.098;2023-11-22T23:04:37;100684.09;;;5.89
42197;BMP280;27866;48.146;17.098;2023-11-22T23:08:53;100676.28;;;5.92
42197;BMP280;27866;48.146;17.098;2023-11-22T23:13:06;100681.91;;;6.01
42197;BMP280;27866;48.146;17.098;2023-11-22T23:17:18;100677.63;;;6.01
42197;BMP280;27866;48.146;17.098;2023-11-22T23:21:29;100666.50;;;6.01
42197;BMP280;27866;48.146;17.098;2023-11-22T23:25:40;100664.06;;;5.98
42197;BMP280;27866;48.146;17.098;2023-11-22T23:29:52;100647.91;;;5.94
42197;BMP280;27866;48.146;17.098;2023-11-22T23:34:03;100662.25;;;6.00
42197;BMP280;27866;48.146;17.098;2023-11-22T23:38:14;100645.72;;;6.07
42197;BMP280;27866;48.146;17.098;2023-11-22T23:42:27;100646.28;;;6.14
42197;BMP280;27866;48.146;17.098;2023-11-22T23:46:38;100638.13;;;6.04
42197;BMP280;27866;48.146;17.098;2023-11-22T23:50:51;100642.53;;;6.00
42197;BMP280;27866;48.146;17.098;2023-11-22T23:55:03;100650.34;;;5.97
42197;BMP280;27866;48.146;17.098;2023-11-22T23:59:17;100641.84;;;5.97
